Main page
METAR-TAF:

METAR-TAF

Airports :

London Biggin Hill Airport

London Biggin Hill, England

latitude: 51-19N, longitude: 000-02E, elevation: 183 m

Current weather observation

The report was made 37 minutes ago, at 20:20 UTC
Wind 4 kt from the West/Southwest
Temperature 1°C
Humidity 80%
Pressure 1024 hPa
Visibility 10 km or more
no clouds below 1500 m and no cumulonimbus

METAR: EGKB 112020Z 24004KT CAVOK 01/M02 Q1024

Time: 21:57 (20:57 UTC)

Forecast

The report was made 4 hours and 2 minutes ago, at 16:55 UTC
Forecast valid from 11 at 18 UTC to 11 at 21 UTC
Wind 7 kt from the West/Northwest
Visibility 10 km or more
Scattered clouds at a height of 4500 ft
Probability 30% :
Temporary
from 11 at 18 UTC to 11 at 21 UTC
Visibility: 6000 m
light rain showers

TAF: EGKB 111655Z 1118/1121 30007KT 9999 SCT045 PROB30 TEMPO 1118/1121 6000 -SHRA

Weather observations and forecasts of more than 4000 airports (METAR and TAF reports).

The available stations are represented by yellow and red dots on the map.

Hover mouse over dot to see the name of the station.

Then click to see weather observations and forecasts.

To change the map : click on the green buttons with a black cross to zoom in, on the green button with a dash to zoom out, or on the green arrows for adjacent maps.


METAR-TAF: